GBGIY EKVG-EGPC
Flight info
| Callsign | GBGIY |
|---|---|
| Flight time | 0h 54m |
| Altitude | 31000 |
| Route | RAKUP/N0276F310 DCT SOXON DCT OGASU |
| Aircraft | SF50/L-BDGRSWY/LB2U2 |
Departure
| Time | 2026-05-06 11:15 |
|---|---|
| Airport | Vágar Airport (EKVG) |
Arrival
| Time | 2026-05-06 12:09 |
|---|---|
| Airport | Wick John O'Groats Airport (EGPC) |
| Time | Latitude | Longitude | Altitude | Speed | Heading |
|---|---|---|---|---|---|
| 2026-05-06 11:14 | 62.02281 | -6.97434 | 9854 ft | 189 kts | 105° |
| 2026-05-06 11:15 | 62.01876 | -6.94754 | 10516 ft | 191 kts | 105° |
| 2026-05-06 11:15 | 62.01473 | -6.92077 | 11161 ft | 194 kts | 105° |
| 2026-05-06 11:15 | 62.01056 | -6.89334 | 11821 ft | 196 kts | 106° |
| 2026-05-06 11:15 | 62.00260 | -6.87001 | 12408 ft | 202 kts | 149° |
| 2026-05-06 11:16 | 61.98903 | -6.86477 | 13048 ft | 200 kts | 184° |
| 2026-05-06 11:16 | 61.97497 | -6.86361 | 13647 ft | 204 kts | 173° |
| 2026-05-06 11:16 | 61.96094 | -6.85800 | 14206 ft | 206 kts | 170° |
| 2026-05-06 11:16 | 61.94674 | -6.85207 | 14730 ft | 209 kts | 172° |
| 2026-05-06 11:17 | 61.93236 | -6.84657 | 15247 ft | 211 kts | 173° |
| 2026-05-06 11:17 | 61.91778 | -6.84099 | 15711 ft | 214 kts | 173° |
| 2026-05-06 11:17 | 61.90304 | -6.83537 | 16190 ft | 216 kts | 174° |
| 2026-05-06 11:17 | 61.88815 | -6.82965 | 16668 ft | 219 kts | 174° |
| 2026-05-06 11:18 | 61.87310 | -6.82391 | 17131 ft | 221 kts | 175° |
| 2026-05-06 11:18 | 61.85791 | -6.81815 | 17598 ft | 223 kts | 175° |
| 2026-05-06 11:18 | 61.84254 | -6.81227 | 18064 ft | 225 kts | 176° |
| 2026-05-06 11:18 | 61.82705 | -6.80642 | 18476 ft | 227 kts | 176° |
| 2026-05-06 11:19 | 61.81142 | -6.80045 | 18860 ft | 229 kts | 177° |
| 2026-05-06 11:19 | 61.79573 | -6.79452 | 19239 ft | 230 kts | 178° |
| 2026-05-06 11:19 | 61.77996 | -6.78850 | 19610 ft | 231 kts | 178° |
| 2026-05-06 11:19 | 61.76409 | -6.78248 | 19979 ft | 232 kts | 179° |
| 2026-05-06 11:20 | 61.74817 | -6.77645 | 20312 ft | 233 kts | 182° |
| 2026-05-06 11:20 | 61.73219 | -6.77039 | 20681 ft | 234 kts | 182° |
| 2026-05-06 11:20 | 61.71616 | -6.76430 | 21050 ft | 234 kts | 182° |
| 2026-05-06 11:20 | 61.70021 | -6.75823 | 21454 ft | 232 kts | 183° |
| 2026-05-06 11:21 | 61.68436 | -6.75226 | 21823 ft | 231 kts | 184° |
| 2026-05-06 11:21 | 61.66855 | -6.74634 | 22224 ft | 230 kts | 184° |
| 2026-05-06 11:21 | 61.65286 | -6.74043 | 22626 ft | 229 kts | 185° |
| 2026-05-06 11:21 | 61.63724 | -6.73458 | 23026 ft | 227 kts | 185° |
| 2026-05-06 11:22 | 61.62170 | -6.72872 | 23429 ft | 226 kts | 186° |
| 2026-05-06 11:22 | 61.60645 | -6.72303 | 23784 ft | 225 kts | 186° |
| 2026-05-06 11:22 | 61.59103 | -6.71725 | 24089 ft | 225 kts | 186° |
| 2026-05-06 11:22 | 61.57559 | -6.71147 | 24394 ft | 226 kts | 185° |
| 2026-05-06 11:23 | 61.56013 | -6.70568 | 24702 ft | 226 kts | 185° |
| 2026-05-06 11:23 | 61.54466 | -6.69987 | 25008 ft | 226 kts | 185° |
| 2026-05-06 11:23 | 61.52917 | -6.69411 | 25315 ft | 226 kts | 185° |
| 2026-05-06 11:23 | 61.51367 | -6.68828 | 25628 ft | 227 kts | 184° |
| 2026-05-06 11:24 | 61.49815 | -6.68252 | 25935 ft | 227 kts | 184° |
| 2026-05-06 11:24 | 61.48261 | -6.67670 | 26247 ft | 227 kts | 184° |
| 2026-05-06 11:24 | 61.46706 | -6.67095 | 26558 ft | 227 kts | 184° |
| 2026-05-06 11:24 | 61.45151 | -6.66519 | 26868 ft | 227 kts | 183° |
| 2026-05-06 11:25 | 61.43593 | -6.65941 | 27180 ft | 227 kts | 183° |
| 2026-05-06 11:25 | 61.42035 | -6.65366 | 27493 ft | 228 kts | 183° |
| 2026-05-06 11:25 | 61.40474 | -6.64786 | 27812 ft | 228 kts | 183° |
| 2026-05-06 11:25 | 61.38912 | -6.64211 | 28125 ft | 228 kts | 182° |
| 2026-05-06 11:26 | 61.37350 | -6.63633 | 28440 ft | 228 kts | 182° |
| 2026-05-06 11:26 | 61.35788 | -6.63055 | 28752 ft | 228 kts | 182° |
| 2026-05-06 11:26 | 61.34222 | -6.62477 | 29065 ft | 228 kts | 182° |
| 2026-05-06 11:26 | 61.32657 | -6.61897 | 29376 ft | 229 kts | 181° |
| 2026-05-06 11:27 | 61.31092 | -6.61323 | 29685 ft | 229 kts | 181° |
| 2026-05-06 11:27 | 61.29524 | -6.60743 | 29995 ft | 229 kts | 181° |
| 2026-05-06 11:27 | 61.27954 | -6.60166 | 30266 ft | 229 kts | 181° |
| 2026-05-06 11:27 | 61.26387 | -6.59590 | 30513 ft | 229 kts | 181° |
| 2026-05-06 11:28 | 61.24819 | -6.59012 | 30762 ft | 229 kts | 180° |
| 2026-05-06 11:28 | 61.23252 | -6.58442 | 31010 ft | 229 kts | 180° |
| 2026-05-06 11:28 | 61.21649 | -6.57869 | 31042 ft | 239 kts | 180° |
| 2026-05-06 11:28 | 61.19974 | -6.57262 | 31053 ft | 249 kts | 179° |
| 2026-05-06 11:29 | 61.18239 | -6.56624 | 31053 ft | 257 kts | 179° |
| 2026-05-06 11:29 | 61.16452 | -6.55972 | 31043 ft | 264 kts | 179° |
| 2026-05-06 11:29 | 61.14623 | -6.55306 | 31050 ft | 270 kts | 179° |
| 2026-05-06 11:29 | 61.12752 | -6.54628 | 31053 ft | 276 kts | 179° |
| 2026-05-06 11:30 | 61.10842 | -6.53933 | 31056 ft | 282 kts | 179° |
| 2026-05-06 11:30 | 61.08888 | -6.53224 | 31053 ft | 288 kts | 179° |
| 2026-05-06 11:30 | 61.06893 | -6.52499 | 31056 ft | 294 kts | 178° |
| 2026-05-06 11:30 | 61.04860 | -6.51760 | 31055 ft | 299 kts | 178° |
| 2026-05-06 11:31 | 61.02794 | -6.51014 | 31057 ft | 304 kts | 178° |
| 2026-05-06 11:31 | 60.98696 | -6.48174 | 31050 ft | 324 kts | 155° |
| 2026-05-06 11:32 | 60.94914 | -6.42905 | 31057 ft | 331 kts | 152° |
| 2026-05-06 11:32 | 60.91069 | -6.37606 | 31056 ft | 335 kts | 152° |
| 2026-05-06 11:33 | 60.87194 | -6.32243 | 31040 ft | 337 kts | 153° |
| 2026-05-06 11:33 | 60.83303 | -6.26888 | 31045 ft | 341 kts | 153° |
| 2026-05-06 11:34 | 60.79352 | -6.21461 | 31045 ft | 343 kts | 153° |
| 2026-05-06 11:34 | 60.75403 | -6.16045 | 31045 ft | 340 kts | 153° |
| 2026-05-06 11:35 | 60.71482 | -6.10696 | 31053 ft | 337 kts | 152° |
| 2026-05-06 11:35 | 60.67595 | -6.05400 | 31050 ft | 336 kts | 152° |
| 2026-05-06 11:36 | 60.63691 | -6.00105 | 31054 ft | 338 kts | 152° |
| 2026-05-06 11:36 | 60.59764 | -5.94792 | 31045 ft | 339 kts | 154° |
| 2026-05-06 11:37 | 60.55811 | -5.89459 | 31040 ft | 342 kts | 153° |
| 2026-05-06 11:37 | 60.51832 | -5.84108 | 31048 ft | 343 kts | 154° |
| 2026-05-06 11:38 | 60.47870 | -5.78794 | 31046 ft | 340 kts | 154° |
| 2026-05-06 11:38 | 60.43931 | -5.73523 | 31043 ft | 339 kts | 154° |
| 2026-05-06 11:39 | 60.39996 | -5.68281 | 31040 ft | 339 kts | 154° |
| 2026-05-06 11:39 | 60.36037 | -5.63014 | 31048 ft | 342 kts | 154° |
| 2026-05-06 11:40 | 60.32061 | -5.57745 | 31045 ft | 342 kts | 154° |
| 2026-05-06 11:40 | 60.28061 | -5.52459 | 31050 ft | 345 kts | 154° |
| 2026-05-06 11:41 | 60.24039 | -5.47160 | 31052 ft | 345 kts | 154° |
| 2026-05-06 11:41 | 60.20029 | -5.41894 | 31050 ft | 343 kts | 154° |
| 2026-05-06 11:42 | 60.16042 | -5.36671 | 31051 ft | 341 kts | 155° |
| 2026-05-06 11:42 | 60.12064 | -5.31479 | 31062 ft | 341 kts | 154° |
| 2026-05-06 11:43 | 60.08094 | -5.26303 | 31068 ft | 340 kts | 154° |
| 2026-05-06 11:43 | 60.04127 | -5.21156 | 31051 ft | 341 kts | 155° |
| 2026-05-06 11:44 | 59.98149 | -5.13420 | 31056 ft | 345 kts | 155° |
| 2026-05-06 11:44 | 59.94108 | -5.08218 | 31057 ft | 346 kts | 155° |
| 2026-05-06 11:45 | 59.90069 | -5.03022 | 31055 ft | 344 kts | 155° |
| 2026-05-06 11:45 | 59.86052 | -4.97878 | 31053 ft | 342 kts | 155° |
| 2026-05-06 11:46 | 59.82053 | -4.92772 | 31049 ft | 341 kts | 155° |
| 2026-05-06 11:46 | 59.78044 | -4.87659 | 31036 ft | 343 kts | 155° |
| 2026-05-06 11:47 | 59.76005 | -4.85077 | 30715 ft | 351 kts | 155° |
| 2026-05-06 11:47 | 59.73950 | -4.82467 | 30272 ft | 349 kts | 155° |
| 2026-05-06 11:47 | 59.71918 | -4.79874 | 29768 ft | 345 kts | 155° |
| 2026-05-06 11:47 | 59.69909 | -4.77334 | 29306 ft | 340 kts | 156° |
| 2026-05-06 11:48 | 59.67920 | -4.74828 | 28861 ft | 339 kts | 156° |
| 2026-05-06 11:48 | 59.65924 | -4.72314 | 28414 ft | 341 kts | 156° |
| 2026-05-06 11:48 | 59.63913 | -4.69777 | 27959 ft | 343 kts | 156° |
| 2026-05-06 11:48 | 59.61906 | -4.67248 | 27506 ft | 342 kts | 156° |
| 2026-05-06 11:49 | 59.59905 | -4.64732 | 27052 ft | 340 kts | 156° |
| 2026-05-06 11:49 | 59.57919 | -4.62243 | 26605 ft | 337 kts | 156° |
| 2026-05-06 11:49 | 59.55946 | -4.59772 | 26160 ft | 335 kts | 156° |
| 2026-05-06 11:49 | 59.53983 | -4.57316 | 25719 ft | 334 kts | 156° |
| 2026-05-06 11:50 | 59.52020 | -4.54867 | 25225 ft | 334 kts | 156° |
| 2026-05-06 11:50 | 59.50064 | -4.52425 | 24832 ft | 332 kts | 156° |
| 2026-05-06 11:50 | 59.48136 | -4.50023 | 24403 ft | 332 kts | 156° |
| 2026-05-06 11:50 | 59.46161 | -4.47567 | 23962 ft | 331 kts | 156° |
| 2026-05-06 11:51 | 59.44214 | -4.45148 | 23501 ft | 330 kts | 156° |
| 2026-05-06 11:51 | 59.42302 | -4.42775 | 23042 ft | 329 kts | 156° |
| 2026-05-06 11:51 | 59.40359 | -4.40371 | 22606 ft | 331 kts | 156° |
| 2026-05-06 11:51 | 59.38405 | -4.37953 | 22165 ft | 333 kts | 156° |
| 2026-05-06 11:52 | 59.36445 | -4.35525 | 21728 ft | 334 kts | 155° |
| 2026-05-06 11:52 | 59.34483 | -4.33104 | 21292 ft | 332 kts | 155° |
| 2026-05-06 11:52 | 59.32534 | -4.30700 | 20850 ft | 330 kts | 155° |
| 2026-05-06 11:52 | 59.30592 | -4.28310 | 20414 ft | 329 kts | 155° |
| 2026-05-06 11:53 | 59.28656 | -4.25935 | 19982 ft | 329 kts | 155° |
| 2026-05-06 11:53 | 59.26719 | -4.23557 | 19548 ft | 329 kts | 155° |
| 2026-05-06 11:53 | 59.24784 | -4.21185 | 19080 ft | 328 kts | 154° |
| 2026-05-06 11:53 | 59.22851 | -4.18822 | 18677 ft | 328 kts | 154° |
| 2026-05-06 11:54 | 59.20917 | -4.16458 | 18222 ft | 328 kts | 154° |
| 2026-05-06 11:54 | 59.18984 | -4.14099 | 17768 ft | 328 kts | 154° |
| 2026-05-06 11:54 | 59.17050 | -4.11741 | 17338 ft | 329 kts | 154° |
| 2026-05-06 11:54 | 59.15107 | -4.09378 | 16905 ft | 330 kts | 153° |
| 2026-05-06 11:55 | 59.13822 | -4.07815 | 16696 ft | 326 kts | 153° |
| 2026-05-06 11:55 | 59.11247 | -4.04683 | 16032 ft | 327 kts | 153° |
| 2026-05-06 11:55 | 59.09975 | -4.03142 | 15677 ft | 323 kts | 153° |
| 2026-05-06 11:55 | 59.08085 | -4.00848 | 15147 ft | 318 kts | 153° |
| 2026-05-06 11:56 | 59.06218 | -3.98591 | 14628 ft | 315 kts | 153° |
| 2026-05-06 11:56 | 59.03733 | -3.95592 | 13937 ft | 314 kts | 152° |
| 2026-05-06 11:56 | 59.02506 | -3.94111 | 13566 ft | 313 kts | 152° |
| 2026-05-06 11:56 | 59.00671 | -3.91899 | 13045 ft | 308 kts | 152° |
| 2026-05-06 11:57 | 58.98862 | -3.89723 | 12536 ft | 303 kts | 152° |
| 2026-05-06 11:57 | 58.97085 | -3.87586 | 12030 ft | 298 kts | 151° |
| 2026-05-06 11:57 | 58.95302 | -3.85613 | 11545 ft | 296 kts | 153° |
| 2026-05-06 11:57 | 58.93500 | -3.83643 | 11064 ft | 296 kts | 153° |
| 2026-05-06 11:58 | 58.91725 | -3.81687 | 10575 ft | 291 kts | 152° |
| 2026-05-06 11:58 | 58.89971 | -3.79771 | 10095 ft | 290 kts | 152° |
| 2026-05-06 11:58 | 58.88221 | -3.77863 | 9590 ft | 286 kts | 152° |
| 2026-05-06 11:58 | 58.86507 | -3.75988 | 9120 ft | 281 kts | 152° |
| 2026-05-06 11:59 | 58.84810 | -3.74142 | 8657 ft | 279 kts | 152° |
| 2026-05-06 11:59 | 58.83128 | -3.72313 | 8197 ft | 276 kts | 152° |
| 2026-05-06 11:59 | 58.81462 | -3.70500 | 7745 ft | 274 kts | 152° |
| 2026-05-06 11:59 | 58.79811 | -3.68705 | 7292 ft | 271 kts | 152° |
| 2026-05-06 12:00 | 58.78181 | -3.66941 | 6847 ft | 267 kts | 152° |
| 2026-05-06 12:00 | 58.76575 | -3.65201 | 6406 ft | 263 kts | 152° |
| 2026-05-06 12:00 | 58.74986 | -3.63482 | 5960 ft | 260 kts | 152° |
| 2026-05-06 12:00 | 58.73415 | -3.61784 | 5532 ft | 258 kts | 152° |
| 2026-05-06 12:01 | 58.71849 | -3.60093 | 5104 ft | 258 kts | 153° |
| 2026-05-06 12:01 | 58.70286 | -3.58408 | 4671 ft | 257 kts | 153° |
| 2026-05-06 12:01 | 58.68733 | -3.56738 | 4243 ft | 255 kts | 153° |
| 2026-05-06 12:01 | 58.67189 | -3.55068 | 3761 ft | 254 kts | 153° |
| 2026-05-06 12:02 | 58.65656 | -3.53420 | 3332 ft | 251 kts | 153° |
| 2026-05-06 12:02 | 58.64132 | -3.51779 | 2910 ft | 252 kts | 153° |
| 2026-05-06 12:02 | 58.62606 | -3.50146 | 2518 ft | 245 kts | 152° |
| 2026-05-06 12:02 | 58.61294 | -3.48402 | 2482 ft | 219 kts | 139° |
| 2026-05-06 12:03 | 58.60336 | -3.46220 | 2454 ft | 213 kts | 128° |
| 2026-05-06 12:03 | 58.59465 | -3.43945 | 2339 ft | 210 kts | 128° |
| 2026-05-06 12:03 | 58.58591 | -3.41732 | 2243 ft | 207 kts | 129° |
| 2026-05-06 12:03 | 58.57722 | -3.39517 | 2161 ft | 209 kts | 128° |
| 2026-05-06 12:04 | 58.56894 | -3.37391 | 2088 ft | 194 kts | 128° |
| 2026-05-06 12:04 | 58.56063 | -3.35238 | 2087 ft | 208 kts | 128° |
| 2026-05-06 12:04 | 58.55242 | -3.33133 | 2099 ft | 184 kts | 128° |
| 2026-05-06 12:04 | 58.54533 | -3.31356 | 2096 ft | 161 kts | 129° |
| 2026-05-06 12:05 | 58.53899 | -3.29709 | 2091 ft | 149 kts | 129° |
| 2026-05-06 12:05 | 58.53315 | -3.28201 | 2094 ft | 130 kts | 130° |
| 2026-05-06 12:05 | 58.52743 | -3.26771 | 2092 ft | 140 kts | 130° |
| 2026-05-06 12:05 | 58.52165 | -3.25287 | 2035 ft | 140 kts | 129° |
| 2026-05-06 12:06 | 58.51592 | -3.23811 | 1851 ft | 136 kts | 129° |
| 2026-05-06 12:06 | 58.51055 | -3.22437 | 1761 ft | 119 kts | 130° |
| 2026-05-06 12:06 | 58.50585 | -3.21246 | 1624 ft | 106 kts | 129° |
| 2026-05-06 12:06 | 58.50163 | -3.20135 | 1474 ft | 100 kts | 129° |
| 2026-05-06 12:07 | 58.49738 | -3.19090 | 1345 ft | 101 kts | 130° |
| 2026-05-06 12:07 | 58.49308 | -3.17997 | 1217 ft | 105 kts | 129° |
| 2026-05-06 12:07 | 58.48879 | -3.16905 | 1065 ft | 101 kts | 129° |
| 2026-05-06 12:07 | 58.48461 | -3.15842 | 910 ft | 98 kts | 131° |
| 2026-05-06 12:08 | 58.48054 | -3.14829 | 768 ft | 94 kts | 133° |
| 2026-05-06 12:08 | 58.47666 | -3.13850 | 630 ft | 90 kts | 128° |
| 2026-05-06 12:08 | 58.47317 | -3.12898 | 513 ft | 84 kts | 128° |
| 2026-05-06 12:08 | 58.46972 | -3.12013 | 373 ft | 81 kts | 133° |
| 2026-05-06 12:09 | 58.46640 | -3.11213 | 266 ft | 73 kts | 131° |
| 2026-05-06 12:09 | 58.46345 | -3.10472 | 164 ft | 68 kts | 130° |
| 2026-05-06 12:09 | 58.46043 | -3.09706 | 130 ft | 65 kts | 132° |
| 2026-05-06 12:09 | 58.45820 | -3.09148 | 130 ft | 38 kts | 127° |
| 2026-05-06 12:10 | 58.45689 | -3.08820 | 132 ft | 28 kts | 128° |
| 2026-05-06 12:10 | 58.45601 | -3.08607 | 132 ft | 10 kts | 133° |
| 2026-05-06 12:10 | 58.45555 | -3.08641 | 132 ft | 8 kts | 237° |
| 2026-05-06 12:10 | 58.45526 | -3.08712 | 131 ft | 6 kts | 219° |
| 2026-05-06 12:11 | 58.45488 | -3.08774 | 130 ft | 8 kts | 218° |
| 2026-05-06 12:11 | 58.45434 | -3.08761 | 131 ft | 9 kts | 155° |
| 2026-05-06 12:11 | 58.45402 | -3.08711 | 131 ft | 6 kts | 128° |
| 2026-05-06 12:11 | 58.45402 | -3.08722 | 131 ft | 0 kts | 304° |